sensor_id;sensor_type;location;lat;lon;timestamp;pressure;altitude;pressure_sealevel;temperature;humidity
30935;BME280;51033;42.648;23.292;2022-08-21T00:00:54;93180.06;;;18.94;65.55
30935;BME280;51033;42.648;23.292;2022-08-21T00:03:19;93241.00;;;19.37;65.74
30935;BME280;51033;42.648;23.292;2022-08-21T00:05:48;93368.81;;;20.23;66.02
30935;BME280;51033;42.648;23.292;2022-08-21T00:08:18;93195.06;;;18.95;65.44
30935;BME280;51033;42.648;23.292;2022-08-21T00:10:45;93274.97;;;19.52;65.25
30935;BME280;51033;42.648;23.292;2022-08-21T00:13:11;93368.41;;;20.17;65.44
30935;BME280;51033;42.648;23.292;2022-08-21T00:15:38;93241.06;;;19.51;65.05
30935;BME280;51033;42.648;23.292;2022-08-21T00:18:06;93243.34;;;19.35;65.31
30935;BME280;51033;42.648;23.292;2022-08-21T00:20:36;93210.53;;;19.19;64.89
30935;BME280;51033;42.648;23.292;2022-08-21T00:23:02;93254.13;;;19.42;65.28
30935;BME280;51033;42.648;23.292;2022-08-21T00:25:29;93229.44;;;19.33;65.25
30935;BME280;51033;42.648;23.292;2022-08-21T00:27:55;93320.13;;;19.84;65.67
30935;BME280;51033;42.648;23.292;2022-08-21T00:30:23;93183.16;;;18.96;65.69
30935;BME280;51033;42.648;23.292;2022-08-21T00:32:50;93253.75;;;19.40;66.50
30935;BME280;51033;42.648;23.292;2022-08-21T00:35:18;93344.84;;;20.07;66.76
30935;BME280;51033;42.648;23.292;2022-08-21T00:37:44;93290.44;;;19.69;66.25
30935;BME280;51033;42.648;23.292;2022-08-21T00:40:18;93266.13;;;19.62;65.73
30935;BME280;51033;42.648;23.292;2022-08-21T00:42:44;93326.31;;;20.02;65.87
30935;BME280;51033;42.648;23.292;2022-08-21T00:45:14;93273.06;;;19.56;65.50
30935;BME280;51033;42.648;23.292;2022-08-21T00:47:40;93338.66;;;20.06;65.19
30935;BME280;51033;42.648;23.292;2022-08-21T00:50:08;93349.84;;;20.15;65.28
30935;BME280;51033;42.648;23.292;2022-08-21T00:52:36;93325.56;;;19.98;65.48
30935;BME280;51033;42.648;23.292;2022-08-21T00:55:05;93275.38;;;19.61;65.79
30935;BME280;51033;42.648;23.292;2022-08-21T00:57:38;93245.31;;;19.45;65.44
30935;BME280;51033;42.648;23.292;2022-08-21T01:00:18;93237.16;;;19.42;65.46
30935;BME280;51033;42.648;23.292;2022-08-21T01:02:44;93344.06;;;20.10;65.49
30935;BME280;51033;42.648;23.292;2022-08-21T01:05:10;93091.00;;;18.48;65.27
30935;BME280;51033;42.648;23.292;2022-08-21T01:07:36;93191.66;;;19.08;65.45
30935;BME280;51033;42.648;23.292;2022-08-21T01:10:06;93282.34;;;19.69;64.87
30935;BME280;51033;42.648;23.292;2022-08-21T01:12:33;93317.84;;;19.93;65.08
30935;BME280;51033;42.648;23.292;2022-08-21T01:15:01;93308.59;;;19.94;65.08
30935;BME280;51033;42.648;23.292;2022-08-21T01:17:29;93326.31;;;20.02;64.92
30935;BME280;51033;42.648;23.292;2022-08-21T01:20:00;93317.09;;;20.03;64.78
30935;BME280;51033;42.648;23.292;2022-08-21T01:22:26;93247.63;;;19.50;65.14
30935;BME280;51033;42.648;23.292;2022-08-21T01:24:52;93308.97;;;19.92;64.92
30935;BME280;51033;42.648;23.292;2022-08-21T01:27:18;93230.63;;;19.39;65.01
30935;BME280;51033;42.648;23.292;2022-08-21T01:29:52;93306.28;;;19.89;64.86
30935;BME280;51033;42.648;23.292;2022-08-21T01:32:20;93302.81;;;19.85;65.62
30935;BME280;51033;42.648;23.292;2022-08-21T01:34:47;93206.31;;;19.18;65.33
30935;BME280;51033;42.648;23.292;2022-08-21T01:37:14;93325.94;;;19.96;64.99
30935;BME280;51033;42.648;23.292;2022-08-21T01:39:41;93251.06;;;19.47;64.77
30935;BME280;51033;42.648;23.292;2022-08-21T01:42:07;93273.09;;;19.60;64.40
30935;BME280;51033;42.648;23.292;2022-08-21T01:44:33;93285.41;;;19.64;64.59
30935;BME280;51033;42.648;23.292;2022-08-21T01:47:02;93234.47;;;19.31;64.88
30935;BME280;51033;42.648;23.292;2022-08-21T01:49:29;93330.19;;;19.94;65.04
30935;BME280;51033;42.648;23.292;2022-08-21T01:51:54;93331.34;;;19.93;64.49
30935;BME280;51033;42.648;23.292;2022-08-21T01:54:20;93056.97;;;18.04;64.53
30935;BME280;51033;42.648;23.292;2022-08-21T01:56:48;93298.50;;;19.62;64.71
30935;BME280;51033;42.648;23.292;2022-08-21T01:59:15;93328.59;;;19.79;65.06
30935;BME280;51033;42.648;23.292;2022-08-21T02:01:41;93166.47;;;18.69;64.89
30935;BME280;51033;42.648;23.292;2022-08-21T02:04:08;93329.34;;;19.75;64.91
30935;BME280;51033;42.648;23.292;2022-08-21T02:06:34;93261.41;;;19.24;64.85
30935;BME280;51033;42.648;23.292;2022-08-21T02:09:02;93282.22;;;19.38;64.74
30935;BME280;51033;42.648;23.292;2022-08-21T02:11:28;93152.53;;;18.42;64.71
30935;BME280;51033;42.648;23.292;2022-08-21T02:13:54;93335.09;;;19.56;64.57
30935;BME280;51033;42.648;23.292;2022-08-21T02:16:22;93234.31;;;18.92;64.46
30935;BME280;51033;42.648;23.292;2022-08-21T02:18:48;93328.53;;;19.57;64.69
30935;BME280;51033;42.648;23.292;2022-08-21T02:21:13;93232.75;;;18.80;64.74
30935;BME280;51033;42.648;23.292;2022-08-21T02:23:39;93125.84;;;18.16;64.59
30935;BME280;51033;42.648;23.292;2022-08-21T02:26:06;93310.75;;;19.35;64.45
30935;BME280;51033;42.648;23.292;2022-08-21T02:28:33;93077.19;;;17.80;65.29
30935;BME280;51033;42.648;23.292;2022-08-21T02:30:59;93330.84;;;19.52;65.07
30935;BME280;51033;42.648;23.292;2022-08-21T02:33:25;93194.91;;;18.63;64.87
30935;BME280;51033;42.648;23.292;2022-08-21T02:35:51;93215.03;;;18.72;64.11
30935;BME280;51033;42.648;23.292;2022-08-21T02:38:21;93266.69;;;18.99;64.42
30935;BME280;51033;42.648;23.292;2022-08-21T02:40:49;93251.66;;;18.95;64.19
30935;BME280;51033;42.648;23.292;2022-08-21T02:43:16;93086.47;;;17.86;64.66
30935;BME280;51033;42.648;23.292;2022-08-21T02:45:43;93219.97;;;18.67;64.80
30935;BME280;51033;42.648;23.292;2022-08-21T02:48:12;93257.38;;;18.82;64.64
30935;BME280;51033;42.648;23.292;2022-08-21T02:50:43;93202.56;;;18.54;64.60
30935;BME280;51033;42.648;23.292;2022-08-21T02:53:11;93142.44;;;18.25;64.87
30935;BME280;51033;42.648;23.292;2022-08-21T02:55:43;93267.50;;;19.14;65.23
30935;BME280;51033;42.648;23.292;2022-08-21T02:58:09;93255.16;;;19.02;64.77
30935;BME280;51033;42.648;23.292;2022-08-21T03:00:37;93279.50;;;19.23;64.74
30935;BME280;51033;42.648;23.292;2022-08-21T03:03:06;93353.22;;;19.59;65.29
30935;BME280;51033;42.648;23.292;2022-08-21T03:05:33;93299.13;;;19.24;65.48
30935;BME280;51033;42.648;23.292;2022-08-21T03:08:01;93088.78;;;17.84;65.50
30935;BME280;51033;42.648;23.292;2022-08-21T03:10:29;93204.53;;;18.60;65.27
30935;BME280;51033;42.648;23.292;2022-08-21T03:12:56;93297.59;;;19.26;65.29
30935;BME280;51033;42.648;23.292;2022-08-21T03:15:23;93085.44;;;18.01;65.29
30935;BME280;51033;42.648;23.292;2022-08-21T03:17:58;93075.34;;;17.88;65.29
30935;BME280;51033;42.648;23.292;2022-08-21T03:20:24;93347.44;;;19.61;65.21
30935;BME280;51033;42.648;23.292;2022-08-21T03:22:51;93245.91;;;19.00;65.03
30935;BME280;51033;42.648;23.292;2022-08-21T03:25:17;93094.69;;;18.08;65.14
30935;BME280;51033;42.648;23.292;2022-08-21T03:27:43;93214.63;;;18.77;65.13
30935;BME280;51033;42.648;23.292;2022-08-21T03:30:10;93269.84;;;19.19;64.84
30935;BME280;51033;42.648;23.292;2022-08-21T03:32:36;93340.88;;;19.55;65.11
30935;BME280;51033;42.648;23.292;2022-08-21T03:35:04;93315.00;;;19.40;65.22
30935;BME280;51033;42.648;23.292;2022-08-21T03:37:30;93295.66;;;19.16;65.61
30935;BME280;51033;42.648;23.292;2022-08-21T03:39:55;93326.22;;;19.52;65.38
30935;BME280;51033;42.648;23.292;2022-08-21T03:42:24;93242.03;;;18.94;65.07
30935;BME280;51033;42.648;23.292;2022-08-21T03:44:50;93251.28;;;19.00;64.98
30935;BME280;51033;42.648;23.292;2022-08-21T03:47:16;93131.66;;;18.18;64.65
30935;BME280;51033;42.648;23.292;2022-08-21T03:49:41;93154.78;;;18.33;64.73
30935;BME280;51033;42.648;23.292;2022-08-21T03:52:08;93350.13;;;19.57;64.84
30935;BME280;51033;42.648;23.292;2022-08-21T03:54:34;93111.91;;;17.99;64.63
30935;BME280;51033;42.648;23.292;2022-08-21T03:57:00;93211.03;;;18.52;64.93
30935;BME280;51033;42.648;23.292;2022-08-21T03:59:25;93274.34;;;18.94;64.98
30935;BME280;51033;42.648;23.292;2022-08-21T04:01:57;93364.31;;;19.44;64.46
30935;BME280;51033;42.648;23.292;2022-08-21T04:04:24;93214.81;;;18.44;64.75
30935;BME280;51033;42.648;23.292;2022-08-21T04:06:50;93207.09;;;18.32;64.08
30935;BME280;51033;42.648;23.292;2022-08-21T04:09:17;93285.13;;;18.86;64.34
30935;BME280;51033;42.648;23.292;2022-08-21T04:11:43;93368.88;;;19.36;64.63
30935;BME280;51033;42.648;23.292;2022-08-21T04:14:08;93374.63;;;19.27;64.88
30935;BME280;51033;42.648;23.292;2022-08-21T04:16:34;93357.28;;;19.25;65.00
30935;BME280;51033;42.648;23.292;2022-08-21T04:18:59;93126.31;;;17.70;64.92
30935;BME280;51033;42.648;23.292;2022-08-21T04:21:25;93354.97;;;19.23;65.37
30935;BME280;51033;42.648;23.292;2022-08-21T04:23:50;93292.38;;;18.82;65.17
30935;BME280;51033;42.648;23.292;2022-08-21T04:26:16;93292.03;;;18.84;65.57
30935;BME280;51033;42.648;23.292;2022-08-21T04:28:44;93067.38;;;17.44;65.73
30935;BME280;51033;42.648;23.292;2022-08-21T04:31:10;93201.69;;;18.32;65.70
30935;BME280;51033;42.648;23.292;2022-08-21T04:33:36;93236.44;;;18.55;65.98
30935;BME280;51033;42.648;23.292;2022-08-21T04:36:01;93279.72;;;18.86;65.99
30935;BME280;51033;42.648;23.292;2022-08-21T04:38:36;93257.97;;;18.58;65.98
30935;BME280;51033;42.648;23.292;2022-08-21T04:41:01;93275.84;;;18.80;66.00
30935;BME280;51033;42.648;23.292;2022-08-21T04:43:32;93175.50;;;18.22;66.22
30935;BME280;51033;42.648;23.292;2022-08-21T04:45:58;93087.44;;;17.57;66.24
30935;BME280;51033;42.648;23.292;2022-08-21T04:48:26;93043.06;;;17.26;66.39
30935;BME280;51033;42.648;23.292;2022-08-21T04:56:15;93357.72;;;19.41;66.50
30935;BME280;51033;42.648;23.292;2022-08-21T04:58:47;93350.84;;;19.47;66.97
30935;BME280;51033;42.648;23.292;2022-08-21T05:01:17;93353.94;;;19.46;66.71
30935;BME280;51033;42.648;23.292;2022-08-21T05:03:44;93264.31;;;18.83;66.33
30935;BME280;51033;42.648;23.292;2022-08-21T05:06:11;93180.94;;;18.36;66.09
30935;BME280;51033;42.648;23.292;2022-08-21T05:08:38;93128.16;;;18.14;66.13
30935;BME280;51033;42.648;23.292;2022-08-21T05:11:05;93318.41;;;19.26;65.57
30935;BME280;51033;42.648;23.292;2022-08-21T05:13:31;93220.22;;;18.44;66.57
30935;BME280;51033;42.648;23.292;2022-08-21T05:15:59;93094.25;;;17.40;67.51
30935;BME280;51033;42.648;23.292;2022-08-21T05:18:25;93138.28;;;17.76;67.68
30935;BME280;51033;42.648;23.292;2022-08-21T05:20:53;93365.63;;;18.99;68.43
30935;BME280;51033;42.648;23.292;2022-08-21T05:23:19;93179.72;;;17.68;69.04
30935;BME280;51033;42.648;23.292;2022-08-21T05:25:47;93248.50;;;18.13;69.11
30935;BME280;51033;42.648;23.292;2022-08-21T05:28:12;93292.56;;;18.49;68.60
30935;BME280;51033;42.648;23.292;2022-08-21T05:30:38;93085.78;;;17.42;67.75
30935;BME280;51033;42.648;23.292;2022-08-21T05:33:05;93359.22;;;19.28;68.02
30935;BME280;51033;42.648;23.292;2022-08-21T05:35:32;93324.84;;;19.04;68.76
30935;BME280;51033;42.648;23.292;2022-08-21T05:37:58;93268.56;;;18.84;68.28
30935;BME280;51033;42.648;23.292;2022-08-21T05:40:25;93127.69;;;18.01;67.75
30935;BME280;51033;42.648;23.292;2022-08-21T05:42:52;93310.69;;;19.21;68.06
30935;BME280;51033;42.648;23.292;2022-08-21T05:45:19;93118.38;;;17.91;67.56
30935;BME280;51033;42.648;23.292;2022-08-21T05:47:44;93349.63;;;19.41;67.29
30935;BME280;51033;42.648;23.292;2022-08-21T05:50:10;93343.88;;;19.43;67.55
30935;BME280;51033;42.648;23.292;2022-08-21T05:52:35;93238.91;;;18.81;67.07
30935;BME280;51033;42.648;23.292;2022-08-21T05:55:01;93285.63;;;19.17;67.07
30935;BME280;51033;42.648;23.292;2022-08-21T05:57:26;93347.81;;;19.59;66.43
30935;BME280;51033;42.648;23.292;2022-08-21T05:59:52;93343.19;;;19.56;66.27
30935;BME280;51033;42.648;23.292;2022-08-21T06:02:19;93355.19;;;19.69;65.95
30935;BME280;51033;42.648;23.292;2022-08-21T06:04:45;93285.25;;;19.22;66.09
30935;BME280;51033;42.648;23.292;2022-08-21T06:07:11;93324.31;;;19.56;66.41
30935;BME280;51033;42.648;23.292;2022-08-21T06:09:37;93341.66;;;19.59;67.02
30935;BME280;51033;42.648;23.292;2022-08-21T06:12:11;93352.44;;;19.62;66.72
30935;BME280;51033;42.648;23.292;2022-08-21T06:14:39;93290.94;;;19.03;66.56
30935;BME280;51033;42.648;23.292;2022-08-21T06:17:10;93076.75;;;17.68;67.21
30935;BME280;51033;42.648;23.292;2022-08-21T06:19:37;93202.94;;;18.48;67.41
30935;BME280;51033;42.648;23.292;2022-08-21T06:22:03;93311.13;;;19.37;67.25
30935;BME280;51033;42.648;23.292;2022-08-21T06:24:32;93198.00;;;18.65;66.25
30935;BME280;51033;42.648;23.292;2022-08-21T06:27:03;93114.81;;;18.38;66.93
30935;BME280;51033;42.648;23.292;2022-08-21T06:29:28;93065.03;;;17.93;67.29
30935;BME280;51033;42.648;23.292;2022-08-21T06:31:54;93263.25;;;19.06;66.48
30935;BME280;51033;42.648;23.292;2022-08-21T06:34:19;93353.19;;;19.45;67.31
30935;BME280;51033;42.648;23.292;2022-08-21T06:36:45;93257.19;;;18.54;67.49
30935;BME280;51033;42.648;23.292;2022-08-21T06:39:11;93168.13;;;18.12;67.50
30935;BME280;51033;42.648;23.292;2022-08-21T06:41:37;93194.19;;;18.69;67.08
30935;BME280;51033;42.648;23.292;2022-08-21T06:44:09;93353.25;;;19.73;67.71
30935;BME280;51033;42.648;23.292;2022-08-21T06:46:35;93240.13;;;18.98;66.27
30935;BME280;51033;42.648;23.292;2022-08-21T06:49:11;93189.16;;;18.68;66.57
30935;BME280;51033;42.648;23.292;2022-08-21T06:51:36;93158.28;;;18.37;66.93
30935;BME280;51033;42.648;23.292;2022-08-21T06:54:05;93194.88;;;18.52;65.91
30935;BME280;51033;42.648;23.292;2022-08-21T06:56:34;93221.09;;;18.66;65.94
30935;BME280;51033;42.648;23.292;2022-08-21T06:59:05;93203.91;;;18.84;65.73
30935;BME280;51033;42.648;23.292;2022-08-21T07:01:34;93186.59;;;18.85;65.13
30935;BME280;51033;42.648;23.292;2022-08-21T07:03:59;93185.84;;;18.96;64.20
30935;BME280;51033;42.648;23.292;2022-08-21T07:06:25;93360.31;;;20.17;65.03
30935;BME280;51033;42.648;23.292;2022-08-21T07:08:51;93183.56;;;19.12;63.73
30935;BME280;51033;42.648;23.292;2022-08-21T07:11:22;93118.72;;;18.55;65.05
30935;BME280;51033;42.648;23.292;2022-08-21T07:13:48;93108.22;;;18.29;66.26
30935;BME280;51033;42.648;23.292;2022-08-21T07:16:16;93369.84;;;19.90;65.56
30935;BME280;51033;42.648;23.292;2022-08-21T07:18:41;93236.22;;;18.88;66.46
30935;BME280;51033;42.648;23.292;2022-08-21T07:21:07;93227.44;;;19.02;65.74
30935;BME280;51033;42.648;23.292;2022-08-21T07:23:37;93370.34;;;20.20;65.83
30935;BME280;51033;42.648;23.292;2022-08-21T07:26:04;93168.53;;;18.97;65.15
30935;BME280;51033;42.648;23.292;2022-08-21T07:28:30;93234.13;;;19.47;64.79
30935;BME280;51033;42.648;23.292;2022-08-21T07:30:57;93116.16;;;18.94;64.24
30935;BME280;51033;42.648;23.292;2022-08-21T07:33:25;93350.28;;;20.64;63.67
30935;BME280;51033;42.648;23.292;2022-08-21T07:35:51;93167.09;;;19.52;63.22
30935;BME280;51033;42.648;23.292;2022-08-21T07:38:17;93351.84;;;20.57;63.96
30935;BME280;51033;42.648;23.292;2022-08-21T07:40:48;93126.59;;;19.27;64.33
30935;BME280;51033;42.648;23.292;2022-08-21T07:43:15;93105.81;;;19.21;62.33
30935;BME280;51033;42.648;23.292;2022-08-21T07:45:44;93172.88;;;19.61;63.10
30935;BME280;51033;42.648;23.292;2022-08-21T07:48:10;93315.56;;;20.66;62.50
30935;BME280;51033;42.648;23.292;2022-08-21T07:50:36;93300.91;;;20.45;61.38
30935;BME280;51033;42.648;23.292;2022-08-21T07:53:03;93108.91;;;19.30;61.92
30935;BME280;51033;42.648;23.292;2022-08-21T07:55:29;93351.06;;;20.82;62.77
30935;BME280;51033;42.648;23.292;2022-08-21T07:57:55;93200.63;;;19.72;61.87
30935;BME280;51033;42.648;23.292;2022-08-21T08:00:24;93337.16;;;20.73;61.87
30935;BME280;51033;42.648;23.292;2022-08-21T08:02:51;93167.06;;;19.42;61.30
30935;BME280;51033;42.648;23.292;2022-08-21T08:05:20;93102.69;;;18.98;61.71
30935;BME280;51033;42.648;23.292;2022-08-21T08:07:49;93084.19;;;18.75;61.22
30935;BME280;51033;42.648;23.292;2022-08-21T08:10:15;93074.56;;;18.74;61.80
30935;BME280;51033;42.648;23.292;2022-08-21T08:12:42;93238.44;;;19.94;62.26
30935;BME280;51033;42.648;23.292;2022-08-21T08:15:12;93322.47;;;20.74;61.51
30935;BME280;51033;42.648;23.292;2022-08-21T08:17:39;93138.59;;;19.51;61.15
30935;BME280;51033;42.648;23.292;2022-08-21T08:20:08;93236.09;;;20.35;59.91
30935;BME280;51033;42.648;23.292;2022-08-21T08:22:35;93074.22;;;19.43;60.46
30935;BME280;51033;42.648;23.292;2022-08-21T08:25:04;93222.94;;;20.54;59.02
30935;BME280;51033;42.648;23.292;2022-08-21T08:27:30;93061.94;;;19.45;59.35
30935;BME280;51033;42.648;23.292;2022-08-21T08:29:56;93239.13;;;20.69;59.58
30935;BME280;51033;42.648;23.292;2022-08-21T08:32:22;93093.50;;;19.77;59.71
30935;BME280;51033;42.648;23.292;2022-08-21T08:34:48;93168.63;;;20.28;59.00
30935;BME280;51033;42.648;23.292;2022-08-21T08:37:17;93124.28;;;19.97;59.65
30935;BME280;51033;42.648;23.292;2022-08-21T08:39:43;93154.34;;;20.31;61.10
30935;BME280;51033;42.648;23.292;2022-08-21T08:42:15;93261.47;;;20.90;59.66
30935;BME280;51033;42.648;23.292;2022-08-21T08:44:45;93204.06;;;20.47;59.71
30935;BME280;51033;42.648;23.292;2022-08-21T08:47:16;93258.75;;;21.01;58.96
30935;BME280;51033;42.648;23.292;2022-08-21T08:49:53;93122.34;;;20.04;58.40
30935;BME280;51033;42.648;23.292;2022-08-21T08:52:26;93071.97;;;19.55;57.35
30935;BME280;51033;42.648;23.292;2022-08-21T08:57:35;93074.25;;;19.67;59.55
30935;BME280;51033;42.648;23.292;2022-08-21T09:00:09;93053.84;;;19.59;61.76
30935;BME280;51033;42.648;23.292;2022-08-21T09:02:38;93099.22;;;20.00;60.89
30935;BME280;51033;42.648;23.292;2022-08-21T09:05:05;93186.63;;;20.70;60.49
30935;BME280;51033;42.648;23.292;2022-08-21T09:13:35;93303.63;;;21.75;57.38
30935;BME280;51033;42.648;23.292;2022-08-21T09:16:09;93313.97;;;21.94;56.68
30935;BME280;51033;42.648;23.292;2022-08-21T09:19:03;93310.41;;;22.04;57.91
30935;BME280;51033;42.648;23.292;2022-08-21T09:21:58;93311.88;;;22.16;57.15
30935;BME280;51033;42.648;23.292;2022-08-21T09:27:18;93315.94;;;21.90;57.37
30935;BME280;51033;42.648;23.292;2022-08-21T09:29:51;93247.22;;;21.66;56.89
30935;BME280;51033;42.648;23.292;2022-08-21T09:32:26;93302.28;;;22.04;57.33
30935;BME280;51033;42.648;23.292;2022-08-21T09:37:34;93295.56;;;22.26;57.46
30935;BME280;51033;42.648;23.292;2022-08-21T09:40:01;93262.34;;;22.19;54.38
30935;BME280;51033;42.648;23.292;2022-08-21T09:42:30;93302.34;;;22.49;53.17
30935;BME280;51033;42.648;23.292;2022-08-21T09:45:10;93278.53;;;22.26;54.58
30935;BME280;51033;42.648;23.292;2022-08-21T09:47:36;93254.59;;;22.17;54.78
30935;BME280;51033;42.648;23.292;2022-08-21T09:50:12;93285.72;;;22.47;53.03
30935;BME280;51033;42.648;23.292;2022-08-21T09:52:46;93297.53;;;22.67;52.56
30935;BME280;51033;42.648;23.292;2022-08-21T09:55:30;93174.38;;;21.90;51.54
30935;BME280;51033;42.648;23.292;2022-08-21T09:58:16;93294.41;;;22.72;52.35
30935;BME280;51033;42.648;23.292;2022-08-21T10:00:43;93157.69;;;21.98;51.84
30935;BME280;51033;42.648;23.292;2022-08-21T10:03:19;93295.06;;;22.87;50.59
30935;BME280;51033;42.648;23.292;2022-08-21T10:06:00;93289.63;;;22.87;50.01
30935;BME280;51033;42.648;23.292;2022-08-21T10:08:30;93126.53;;;21.79;50.87
30935;BME280;51033;42.648;23.292;2022-08-21T10:11:02;93120.50;;;21.58;50.84
30935;BME280;51033;42.648;23.292;2022-08-21T10:13:46;93228.09;;;22.39;51.93
30935;BME280;51033;42.648;23.292;2022-08-21T10:27:37;93179.44;;;22.32;53.60
30935;BME280;51033;42.648;23.292;2022-08-21T10:30:15;93044.00;;;21.57;52.29
30935;BME280;51033;42.648;23.292;2022-08-21T10:35:37;93170.13;;;21.88;55.07
30935;BME280;51033;42.648;23.292;2022-08-21T10:49:17;93240.88;;;22.80;52.68
30935;BME280;51033;42.648;23.292;2022-08-21T10:51:54;93239.31;;;22.82;54.00
30935;BME280;51033;42.648;23.292;2022-08-21T10:57:16;93199.16;;;22.70;53.35
30935;BME280;51033;42.648;23.292;2022-08-21T10:59:54;93128.31;;;22.34;52.14
30935;BME280;51033;42.648;23.292;2022-08-21T11:02:30;93231.75;;;23.00;52.77
30935;BME280;51033;42.648;23.292;2022-08-21T11:04:58;93240.69;;;23.01;51.94
30935;BME280;51033;42.648;23.292;2022-08-21T11:07:30;93226.75;;;22.99;52.58
30935;BME280;51033;42.648;23.292;2022-08-21T11:10:05;93072.50;;;22.06;50.80
30935;BME280;51033;42.648;23.292;2022-08-21T11:12:40;93099.72;;;22.29;49.96
30935;BME280;51033;42.648;23.292;2022-08-21T11:18:17;93202.31;;;23.02;50.70
30935;BME280;51033;42.648;23.292;2022-08-21T11:21:13;93203.50;;;22.98;51.34
30935;BME280;51033;42.648;23.292;2022-08-21T11:23:53;93115.47;;;22.42;52.36
30935;BME280;51033;42.648;23.292;2022-08-21T11:26:43;93219.66;;;23.08;51.07
30935;BME280;51033;42.648;23.292;2022-08-21T11:29:19;93216.53;;;23.10;50.17
30935;BME280;51033;42.648;23.292;2022-08-21T11:42:32;93050.78;;;22.13;49.59
30935;BME280;51033;42.648;23.292;2022-08-21T11:45:20;93201.03;;;23.10;49.63
30935;BME280;51033;42.648;23.292;2022-08-21T11:50:40;93213.88;;;23.06;48.69
30935;BME280;51033;42.648;23.292;2022-08-21T11:53:39;93195.41;;;22.94;48.66
30935;BME280;51033;42.648;23.292;2022-08-21T11:56:21;93059.69;;;22.10;50.29
30935;BME280;51033;42.648;23.292;2022-08-21T11:58:53;93114.22;;;22.50;51.22
30935;BME280;51033;42.648;23.292;2022-08-21T12:01:26;93207.31;;;23.04;52.32
30935;BME280;51033;42.648;23.292;2022-08-21T12:03:58;93189.34;;;23.17;49.62
30935;BME280;51033;42.648;23.292;2022-08-21T12:06:34;92999.56;;;21.92;49.08
30935;BME280;51033;42.648;23.292;2022-08-21T12:09:10;93120.66;;;22.97;48.34
30935;BME280;51033;42.648;23.292;2022-08-21T12:12:12;93133.31;;;23.03;49.73
30935;BME280;51033;42.648;23.292;2022-08-21T12:14:49;93162.50;;;23.23;51.33
30935;BME280;51033;42.648;23.292;2022-08-21T12:17:21;93192.53;;;23.39;49.32
30935;BME280;51033;42.648;23.292;2022-08-21T12:19:58;93189.41;;;23.40;50.66
30935;BME280;51033;42.648;23.292;2022-08-21T12:22:38;93119.56;;;22.91;49.13
30935;BME280;51033;42.648;23.292;2022-08-21T12:25:08;93156.03;;;23.17;49.79
30935;BME280;51033;42.648;23.292;2022-08-21T12:27:46;93179.78;;;23.36;50.59
30935;BME280;51033;42.648;23.292;2022-08-21T12:33:00;93193.19;;;23.50;50.66
30935;BME280;51033;42.648;23.292;2022-08-21T12:35:37;93155.44;;;23.29;50.43
30935;BME280;51033;42.648;23.292;2022-08-21T12:38:16;93197.44;;;23.51;50.35
30935;BME280;51033;42.648;23.292;2022-08-21T12:40:48;93182.66;;;23.52;50.28
30935;BME280;51033;42.648;23.292;2022-08-21T12:43:20;93176.06;;;23.53;48.73
30935;BME280;51033;42.648;23.292;2022-08-21T12:45:50;93189.56;;;23.56;49.49
30935;BME280;51033;42.648;23.292;2022-08-21T12:48:36;93185.28;;;23.59;49.69
30935;BME280;51033;42.648;23.292;2022-08-21T12:51:18;92931.53;;;21.90;49.98
30935;BME280;51033;42.648;23.292;2022-08-21T12:53:52;93088.13;;;22.93;50.63
30935;BME280;51033;42.648;23.292;2022-08-21T12:56:21;92903.59;;;21.66;51.22
30935;BME280;51033;42.648;23.292;2022-08-21T12:58:50;93143.81;;;23.32;52.22
30935;BME280;51033;42.648;23.292;2022-08-21T13:01:34;93117.59;;;23.22;51.47
30935;BME280;51033;42.648;23.292;2022-08-21T13:04:07;93178.25;;;23.62;51.70
30935;BME280;51033;42.648;23.292;2022-08-21T13:06:43;93164.03;;;23.54;51.59
30935;BME280;51033;42.648;23.292;2022-08-21T13:09:18;93039.19;;;22.73;51.38
30935;BME280;51033;42.648;23.292;2022-08-21T13:11:47;93091.84;;;23.06;52.80
30935;BME280;51033;42.648;23.292;2022-08-21T13:16:55;93104.03;;;23.22;51.52
30935;BME280;51033;42.648;23.292;2022-08-21T13:19:22;93154.59;;;23.62;52.01
30935;BME280;51033;42.648;23.292;2022-08-21T13:21:51;93166.78;;;23.77;51.82
30935;BME280;51033;42.648;23.292;2022-08-21T13:24:30;93119.06;;;23.53;53.36
30935;BME280;51033;42.648;23.292;2022-08-21T13:26:59;93101.69;;;23.50;51.42
30935;BME280;51033;42.648;23.292;2022-08-21T13:29:31;93145.59;;;23.92;51.79
30935;BME280;51033;42.648;23.292;2022-08-21T13:32:00;93046.38;;;23.41;52.10
30935;BME280;51033;42.648;23.292;2022-08-21T13:34:31;93057.09;;;23.48;52.10
30935;BME280;51033;42.648;23.292;2022-08-21T13:37:00;92886.50;;;22.34;51.92
30935;BME280;51033;42.648;23.292;2022-08-21T13:39:33;93106.34;;;23.73;49.97
30935;BME280;51033;42.648;23.292;2022-08-21T13:42:01;93052.25;;;23.36;49.69
30935;BME280;51033;42.648;23.292;2022-08-21T13:46:56;93152.50;;;23.96;49.53
30935;BME280;51033;42.648;23.292;2022-08-21T13:49:35;92899.94;;;22.41;50.75
30935;BME280;51033;42.648;23.292;2022-08-21T13:52:12;93147.75;;;24.00;50.64
30935;BME280;51033;42.648;23.292;2022-08-21T13:54:42;93021.19;;;23.17;50.69
30935;BME280;51033;42.648;23.292;2022-08-21T13:57:17;93067.47;;;23.30;51.41
30935;BME280;51033;42.648;23.292;2022-08-21T13:59:43;93142.22;;;23.84;51.51
30935;BME280;51033;42.648;23.292;2022-08-21T14:02:19;93147.31;;;23.82;51.67
30935;BME280;51033;42.648;23.292;2022-08-21T14:04:57;93062.03;;;23.30;51.66
30935;BME280;51033;42.648;23.292;2022-08-21T14:07:33;92875.25;;;22.05;51.17
30935;BME280;51033;42.648;23.292;2022-08-21T14:10:15;93081.28;;;23.39;52.20
30935;BME280;51033;42.648;23.292;2022-08-21T14:12:47;92985.44;;;22.68;51.98
30935;BME280;51033;42.648;23.292;2022-08-21T14:15:17;93114.47;;;23.50;53.30